sensor_id;sensor_type;location;lat;lon;timestamp;P1;durP1;ratioP1;P2;durP2;ratioP2
12367;SDS011;6248;49.812;6.620;2023-12-22T00:01:47;5.10;;;1.40;;
12367;SDS011;6248;49.812;6.620;2023-12-22T00:04:14;4.70;;;1.80;;
12367;SDS011;6248;49.812;6.620;2023-12-22T00:06:41;5.30;;;1.70;;
12367;SDS011;6248;49.812;6.620;2023-12-22T00:09:08;4.60;;;1.90;;
12367;SDS011;6248;49.812;6.620;2023-12-22T00:11:35;5.77;;;1.73;;
12367;SDS011;6248;49.812;6.620;2023-12-22T00:14:04;3.63;;;1.53;;
12367;SDS011;6248;49.812;6.620;2023-12-22T00:16:31;4.47;;;1.90;;
12367;SDS011;6248;49.812;6.620;2023-12-22T00:18:58;4.47;;;1.60;;
12367;SDS011;6248;49.812;6.620;2023-12-22T00:21:25;5.47;;;1.70;;
12367;SDS011;6248;49.812;6.620;2023-12-22T00:23:52;6.33;;;1.40;;
12367;SDS011;6248;49.812;6.620;2023-12-22T00:26:20;6.00;;;1.80;;
12367;SDS011;6248;49.812;6.620;2023-12-22T00:28:47;4.50;;;1.80;;
12367;SDS011;6248;49.812;6.620;2023-12-22T00:31:15;5.60;;;1.67;;
12367;SDS011;6248;49.812;6.620;2023-12-22T00:33:43;5.33;;;1.90;;
12367;SDS011;6248;49.812;6.620;2023-12-22T00:36:10;6.70;;;1.83;;
12367;SDS011;6248;49.812;6.620;2023-12-22T00:38:37;4.13;;;1.43;;
12367;SDS011;6248;49.812;6.620;2023-12-22T00:41:04;7.30;;;1.67;;
12367;SDS011;6248;49.812;6.620;2023-12-22T00:43:31;2.43;;;1.10;;
12367;SDS011;6248;49.812;6.620;2023-12-22T00:45:58;7.50;;;1.83;;
12367;SDS011;6248;49.812;6.620;2023-12-22T00:48:27;4.97;;;1.63;;
12367;SDS011;6248;49.812;6.620;2023-12-22T00:50:54;4.37;;;1.80;;
12367;SDS011;6248;49.812;6.620;2023-12-22T00:53:21;5.73;;;1.70;;
12367;SDS011;6248;49.812;6.620;2023-12-22T00:55:48;4.00;;;1.60;;
12367;SDS011;6248;49.812;6.620;2023-12-22T00:58:15;7.37;;;2.27;;
12367;SDS011;6248;49.812;6.620;2023-12-22T01:00:42;5.17;;;1.60;;
12367;SDS011;6248;49.812;6.620;2023-12-22T01:03:10;6.20;;;1.70;;
12367;SDS011;6248;49.812;6.620;2023-12-22T01:05:39;6.33;;;2.07;;
12367;SDS011;6248;49.812;6.620;2023-12-22T01:08:06;8.60;;;2.00;;
12367;SDS011;6248;49.812;6.620;2023-12-22T01:10:33;4.60;;;1.73;;
12367;SDS011;6248;49.812;6.620;2023-12-22T01:13:00;6.50;;;2.13;;
12367;SDS011;6248;49.812;6.620;2023-12-22T01:15:27;8.23;;;2.20;;
12367;SDS011;6248;49.812;6.620;2023-12-22T01:17:55;4.47;;;1.77;;
12367;SDS011;6248;49.812;6.620;2023-12-22T01:20:22;6.90;;;1.93;;
12367;SDS011;6248;49.812;6.620;2023-12-22T01:22:50;8.33;;;2.30;;
12367;SDS011;6248;49.812;6.620;2023-12-22T01:25:17;8.23;;;2.00;;
12367;SDS011;6248;49.812;6.620;2023-12-22T01:27:44;6.53;;;2.07;;
12367;SDS011;6248;49.812;6.620;2023-12-22T01:30:12;7.27;;;2.03;;
12367;SDS011;6248;49.812;6.620;2023-12-22T01:32:39;6.40;;;1.80;;
12367;SDS011;6248;49.812;6.620;2023-12-22T01:35:07;6.73;;;1.87;;
12367;SDS011;6248;49.812;6.620;2023-12-22T01:37:35;6.90;;;2.10;;
12367;SDS011;6248;49.812;6.620;2023-12-22T01:40:04;7.53;;;1.77;;
12367;SDS011;6248;49.812;6.620;2023-12-22T01:42:31;4.53;;;1.50;;
12367;SDS011;6248;49.812;6.620;2023-12-22T01:44:59;4.43;;;1.43;;
12367;SDS011;6248;49.812;6.620;2023-12-22T01:47:26;5.20;;;1.77;;
12367;SDS011;6248;49.812;6.620;2023-12-22T01:49:53;3.87;;;1.37;;
12367;SDS011;6248;49.812;6.620;2023-12-22T01:52:20;7.70;;;2.13;;
12367;SDS011;6248;49.812;6.620;2023-12-22T01:54:49;10.13;;;2.40;;
12367;SDS011;6248;49.812;6.620;2023-12-22T01:57:17;5.37;;;1.90;;
12367;SDS011;6248;49.812;6.620;2023-12-22T01:59:45;8.63;;;2.03;;
12367;SDS011;6248;49.812;6.620;2023-12-22T02:02:13;7.47;;;1.93;;
12367;SDS011;6248;49.812;6.620;2023-12-22T02:04:40;6.83;;;2.00;;
12367;SDS011;6248;49.812;6.620;2023-12-22T02:07:07;6.67;;;1.77;;
12367;SDS011;6248;49.812;6.620;2023-12-22T02:09:35;4.33;;;1.70;;
12367;SDS011;6248;49.812;6.620;2023-12-22T02:12:03;6.10;;;2.27;;
12367;SDS011;6248;49.812;6.620;2023-12-22T02:14:32;6.60;;;1.87;;
12367;SDS011;6248;49.812;6.620;2023-12-22T02:17:02;5.53;;;1.93;;
12367;SDS011;6248;49.812;6.620;2023-12-22T02:19:35;5.17;;;1.73;;
12367;SDS011;6248;49.812;6.620;2023-12-22T02:22:07;4.77;;;1.60;;
12367;SDS011;6248;49.812;6.620;2023-12-22T02:24:36;5.17;;;1.70;;
12367;SDS011;6248;49.812;6.620;2023-12-22T02:27:04;7.30;;;1.67;;
12367;SDS011;6248;49.812;6.620;2023-12-22T02:29:32;5.77;;;1.70;;
12367;SDS011;6248;49.812;6.620;2023-12-22T02:32:00;6.77;;;1.80;;
12367;SDS011;6248;49.812;6.620;2023-12-22T02:34:29;4.47;;;1.30;;
12367;SDS011;6248;49.812;6.620;2023-12-22T02:36:57;3.47;;;1.40;;
12367;SDS011;6248;49.812;6.620;2023-12-22T02:39:25;4.10;;;1.50;;
12367;SDS011;6248;49.812;6.620;2023-12-22T02:41:53;3.20;;;1.33;;
12367;SDS011;6248;49.812;6.620;2023-12-22T02:44:21;2.40;;;1.03;;
12367;SDS011;6248;49.812;6.620;2023-12-22T02:46:48;3.63;;;1.10;;
12367;SDS011;6248;49.812;6.620;2023-12-22T02:49:15;4.60;;;1.30;;
12367;SDS011;6248;49.812;6.620;2023-12-22T02:51:43;3.00;;;1.13;;
12367;SDS011;6248;49.812;6.620;2023-12-22T02:54:10;3.47;;;1.20;;
12367;SDS011;6248;49.812;6.620;2023-12-22T02:56:38;3.10;;;1.20;;
12367;SDS011;6248;49.812;6.620;2023-12-22T02:59:09;3.30;;;1.30;;
12367;SDS011;6248;49.812;6.620;2023-12-22T03:01:36;4.40;;;1.30;;
12367;SDS011;6248;49.812;6.620;2023-12-22T03:04:03;3.73;;;1.07;;
12367;SDS011;6248;49.812;6.620;2023-12-22T03:06:30;5.33;;;1.10;;
12367;SDS011;6248;49.812;6.620;2023-12-22T03:08:57;1.30;;;0.80;;
12367;SDS011;6248;49.812;6.620;2023-12-22T03:11:24;1.17;;;0.63;;
12367;SDS011;6248;49.812;6.620;2023-12-22T03:13:51;2.27;;;0.80;;
12367;SDS011;6248;49.812;6.620;2023-12-22T03:16:20;1.60;;;0.93;;
12367;SDS011;6248;49.812;6.620;2023-12-22T03:18:47;1.90;;;1.20;;
12367;SDS011;6248;49.812;6.620;2023-12-22T03:21:16;2.50;;;1.10;;
12367;SDS011;6248;49.812;6.620;2023-12-22T03:23:43;1.73;;;1.20;;
12367;SDS011;6248;49.812;6.620;2023-12-22T03:26:11;4.33;;;1.00;;
12367;SDS011;6248;49.812;6.620;2023-12-22T03:28:38;2.23;;;1.27;;
12367;SDS011;6248;49.812;6.620;2023-12-22T03:31:05;3.57;;;1.30;;
12367;SDS011;6248;49.812;6.620;2023-12-22T03:33:34;4.07;;;1.37;;
12367;SDS011;6248;49.812;6.620;2023-12-22T03:36:01;4.43;;;1.53;;
12367;SDS011;6248;49.812;6.620;2023-12-22T03:38:28;4.17;;;1.63;;
12367;SDS011;6248;49.812;6.620;2023-12-22T03:40:55;5.33;;;1.60;;
12367;SDS011;6248;49.812;6.620;2023-12-22T03:43:22;5.80;;;1.77;;
12367;SDS011;6248;49.812;6.620;2023-12-22T03:45:49;6.07;;;2.00;;
12367;SDS011;6248;49.812;6.620;2023-12-22T03:48:16;5.73;;;1.80;;
12367;SDS011;6248;49.812;6.620;2023-12-22T03:50:45;10.53;;;2.47;;
12367;SDS011;6248;49.812;6.620;2023-12-22T03:53:12;6.63;;;2.07;;
12367;SDS011;6248;49.812;6.620;2023-12-22T03:55:39;4.70;;;1.80;;
12367;SDS011;6248;49.812;6.620;2023-12-22T03:58:06;5.97;;;2.20;;
12367;SDS011;6248;49.812;6.620;2023-12-22T04:00:33;4.40;;;1.67;;
12367;SDS011;6248;49.812;6.620;2023-12-22T04:03:00;4.93;;;1.57;;
12367;SDS011;6248;49.812;6.620;2023-12-22T04:05:27;8.63;;;2.13;;
12367;SDS011;6248;49.812;6.620;2023-12-22T04:07:56;7.97;;;2.07;;
12367;SDS011;6248;49.812;6.620;2023-12-22T04:10:23;8.67;;;2.10;;
12367;SDS011;6248;49.812;6.620;2023-12-22T04:12:50;8.40;;;2.10;;
12367;SDS011;6248;49.812;6.620;2023-12-22T04:15:17;9.00;;;2.23;;
12367;SDS011;6248;49.812;6.620;2023-12-22T04:17:44;7.63;;;2.30;;
12367;SDS011;6248;49.812;6.620;2023-12-22T04:20:11;6.17;;;2.00;;
12367;SDS011;6248;49.812;6.620;2023-12-22T04:22:39;7.27;;;1.90;;
12367;SDS011;6248;49.812;6.620;2023-12-22T04:25:08;6.67;;;2.23;;
12367;SDS011;6248;49.812;6.620;2023-12-22T04:27:35;11.80;;;2.60;;
12367;SDS011;6248;49.812;6.620;2023-12-22T04:30:02;5.17;;;2.13;;
12367;SDS011;6248;49.812;6.620;2023-12-22T04:32:29;5.33;;;2.13;;
12367;SDS011;6248;49.812;6.620;2023-12-22T04:34:56;10.07;;;2.20;;
12367;SDS011;6248;49.812;6.620;2023-12-22T04:37:23;9.53;;;2.53;;
12367;SDS011;6248;49.812;6.620;2023-12-22T04:39:51;5.87;;;1.83;;
12367;SDS011;6248;49.812;6.620;2023-12-22T04:42:19;7.77;;;2.40;;
12367;SDS011;6248;49.812;6.620;2023-12-22T04:44:46;6.87;;;2.13;;
12367;SDS011;6248;49.812;6.620;2023-12-22T04:47:14;7.27;;;2.43;;
12367;SDS011;6248;49.812;6.620;2023-12-22T04:49:41;5.83;;;1.87;;
12367;SDS011;6248;49.812;6.620;2023-12-22T04:52:08;6.60;;;2.20;;
12367;SDS011;6248;49.812;6.620;2023-12-22T04:54:35;9.97;;;2.30;;
12367;SDS011;6248;49.812;6.620;2023-12-22T04:57:02;6.03;;;1.80;;
12367;SDS011;6248;49.812;6.620;2023-12-22T04:59:31;4.57;;;2.00;;
12367;SDS011;6248;49.812;6.620;2023-12-22T05:01:58;4.90;;;2.00;;
12367;SDS011;6248;49.812;6.620;2023-12-22T05:04:25;6.50;;;1.87;;
12367;SDS011;6248;49.812;6.620;2023-12-22T05:06:52;4.17;;;1.33;;
12367;SDS011;6248;49.812;6.620;2023-12-22T05:09:19;7.03;;;1.80;;
12367;SDS011;6248;49.812;6.620;2023-12-22T05:11:47;3.13;;;1.33;;
12367;SDS011;6248;49.812;6.620;2023-12-22T05:14:14;1.90;;;1.10;;
12367;SDS011;6248;49.812;6.620;2023-12-22T05:16:43;3.63;;;1.60;;
12367;SDS011;6248;49.812;6.620;2023-12-22T05:19:10;4.10;;;1.20;;
12367;SDS011;6248;49.812;6.620;2023-12-22T05:21:37;2.47;;;0.80;;
12367;SDS011;6248;49.812;6.620;2023-12-22T05:24:04;3.07;;;1.10;;
12367;SDS011;6248;49.812;6.620;2023-12-22T05:26:31;3.93;;;1.10;;
12367;SDS011;6248;49.812;6.620;2023-12-22T05:28:58;1.23;;;0.70;;
12367;SDS011;6248;49.812;6.620;2023-12-22T05:31:26;2.83;;;1.40;;
12367;SDS011;6248;49.812;6.620;2023-12-22T05:33:54;1.67;;;0.50;;
12367;SDS011;6248;49.812;6.620;2023-12-22T05:36:21;1.43;;;0.50;;
12367;SDS011;6248;49.812;6.620;2023-12-22T05:38:50;1.90;;;0.90;;
12367;SDS011;6248;49.812;6.620;2023-12-22T05:41:17;2.73;;;0.80;;
12367;SDS011;6248;49.812;6.620;2023-12-22T05:43:44;1.90;;;0.67;;
12367;SDS011;6248;49.812;6.620;2023-12-22T05:46:11;0.30;;;0.30;;
12367;SDS011;6248;49.812;6.620;2023-12-22T05:48:38;2.17;;;0.60;;
12367;SDS011;6248;49.812;6.620;2023-12-22T05:51:06;2.47;;;0.90;;
12367;SDS011;6248;49.812;6.620;2023-12-22T05:53:38;1.63;;;0.63;;
12367;SDS011;6248;49.812;6.620;2023-12-22T05:56:06;1.37;;;0.60;;
12367;SDS011;6248;49.812;6.620;2023-12-22T05:58:43;0.87;;;0.60;;
12367;SDS011;6248;49.812;6.620;2023-12-22T06:01:13;1.53;;;0.73;;
12367;SDS011;6248;49.812;6.620;2023-12-22T06:03:40;1.80;;;0.67;;
12367;SDS011;6248;49.812;6.620;2023-12-22T06:06:09;0.77;;;0.70;;
12367;SDS011;6248;49.812;6.620;2023-12-22T06:08:36;1.77;;;0.90;;
12367;SDS011;6248;49.812;6.620;2023-12-22T06:11:03;1.13;;;0.50;;
12367;SDS011;6248;49.812;6.620;2023-12-22T06:13:31;1.30;;;0.70;;
12367;SDS011;6248;49.812;6.620;2023-12-22T06:15:58;1.73;;;0.60;;
12367;SDS011;6248;49.812;6.620;2023-12-22T06:18:25;2.60;;;0.80;;
12367;SDS011;6248;49.812;6.620;2023-12-22T06:20:52;1.00;;;0.73;;
12367;SDS011;6248;49.812;6.620;2023-12-22T06:23:21;1.60;;;0.80;;
12367;SDS011;6248;49.812;6.620;2023-12-22T06:25:48;1.37;;;0.87;;
12367;SDS011;6248;49.812;6.620;2023-12-22T06:28:15;3.70;;;1.00;;
12367;SDS011;6248;49.812;6.620;2023-12-22T06:30:43;2.47;;;0.80;;
12367;SDS011;6248;49.812;6.620;2023-12-22T06:33:12;2.73;;;0.93;;
12367;SDS011;6248;49.812;6.620;2023-12-22T06:35:39;3.90;;;1.30;;
12367;SDS011;6248;49.812;6.620;2023-12-22T06:38:07;3.70;;;1.10;;
12367;SDS011;6248;49.812;6.620;2023-12-22T06:40:37;3.70;;;1.60;;
12367;SDS011;6248;49.812;6.620;2023-12-22T06:43:04;4.73;;;1.60;;
12367;SDS011;6248;49.812;6.620;2023-12-22T06:45:32;5.03;;;1.40;;
12367;SDS011;6248;49.812;6.620;2023-12-22T06:47:59;6.00;;;2.13;;
12367;SDS011;6248;49.812;6.620;2023-12-22T06:50:26;6.13;;;1.60;;
12367;SDS011;6248;49.812;6.620;2023-12-22T06:52:53;6.97;;;1.97;;
12367;SDS011;6248;49.812;6.620;2023-12-22T06:55:20;8.40;;;1.97;;
12367;SDS011;6248;49.812;6.620;2023-12-22T06:57:49;6.90;;;2.27;;
12367;SDS011;6248;49.812;6.620;2023-12-22T07:00:16;10.60;;;2.30;;
12367;SDS011;6248;49.812;6.620;2023-12-22T07:02:44;6.83;;;2.17;;
12367;SDS011;6248;49.812;6.620;2023-12-22T07:05:31;8.97;;;2.50;;
12367;SDS011;6248;49.812;6.620;2023-12-22T07:07:59;9.53;;;2.67;;
12367;SDS011;6248;49.812;6.620;2023-12-22T07:10:26;7.83;;;2.20;;
12367;SDS011;6248;49.812;6.620;2023-12-22T07:12:54;7.23;;;2.37;;
12367;SDS011;6248;49.812;6.620;2023-12-22T07:15:21;12.17;;;2.60;;
12367;SDS011;6248;49.812;6.620;2023-12-22T07:17:48;11.50;;;2.90;;
12367;SDS011;6248;49.812;6.620;2023-12-22T07:20:16;9.77;;;2.80;;
12367;SDS011;6248;49.812;6.620;2023-12-22T07:22:44;8.13;;;2.73;;
12367;SDS011;6248;49.812;6.620;2023-12-22T07:25:11;10.43;;;2.50;;
12367;SDS011;6248;49.812;6.620;2023-12-22T07:27:38;10.07;;;2.93;;
12367;SDS011;6248;49.812;6.620;2023-12-22T07:30:07;14.33;;;3.63;;
12367;SDS011;6248;49.812;6.620;2023-12-22T07:32:36;14.37;;;3.60;;
12367;SDS011;6248;49.812;6.620;2023-12-22T07:35:04;13.40;;;3.50;;
12367;SDS011;6248;49.812;6.620;2023-12-22T07:37:34;13.83;;;3.47;;
12367;SDS011;6248;49.812;6.620;2023-12-22T07:40:02;14.40;;;3.20;;
12367;SDS011;6248;49.812;6.620;2023-12-22T07:42:29;13.53;;;3.70;;
12367;SDS011;6248;49.812;6.620;2023-12-22T07:44:56;16.20;;;3.57;;
12367;SDS011;6248;49.812;6.620;2023-12-22T07:47:25;12.30;;;2.97;;
12367;SDS011;6248;49.812;6.620;2023-12-22T07:49:52;16.53;;;3.83;;
12367;SDS011;6248;49.812;6.620;2023-12-22T07:52:19;13.97;;;3.43;;
12367;SDS011;6248;49.812;6.620;2023-12-22T07:54:46;12.50;;;3.37;;
12367;SDS011;6248;49.812;6.620;2023-12-22T07:57:13;14.80;;;4.10;;
12367;SDS011;6248;49.812;6.620;2023-12-22T07:59:40;11.50;;;3.33;;
12367;SDS011;6248;49.812;6.620;2023-12-22T08:02:08;16.47;;;3.70;;
12367;SDS011;6248;49.812;6.620;2023-12-22T08:04:38;12.13;;;3.70;;
12367;SDS011;6248;49.812;6.620;2023-12-22T08:07:06;16.80;;;3.33;;
12367;SDS011;6248;49.812;6.620;2023-12-22T08:09:33;14.53;;;4.03;;
12367;SDS011;6248;49.812;6.620;2023-12-22T08:12:00;18.50;;;4.03;;
12367;SDS011;6248;49.812;6.620;2023-12-22T08:14:27;13.60;;;3.47;;
12367;SDS011;6248;49.812;6.620;2023-12-22T08:16:54;15.43;;;4.00;;
12367;SDS011;6248;49.812;6.620;2023-12-22T08:19:21;15.07;;;3.70;;
12367;SDS011;6248;49.812;6.620;2023-12-22T08:21:50;15.47;;;3.53;;
12367;SDS011;6248;49.812;6.620;2023-12-22T08:24:19;17.97;;;4.10;;
12367;SDS011;6248;49.812;6.620;2023-12-22T08:26:46;12.43;;;3.60;;
12367;SDS011;6248;49.812;6.620;2023-12-22T08:29:13;15.83;;;3.87;;
12367;SDS011;6248;49.812;6.620;2023-12-22T08:31:40;14.10;;;3.90;;
12367;SDS011;6248;49.812;6.620;2023-12-22T08:34:08;19.10;;;4.23;;
12367;SDS011;6248;49.812;6.620;2023-12-22T08:36:35;16.63;;;4.07;;
12367;SDS011;6248;49.812;6.620;2023-12-22T08:39:04;12.93;;;3.07;;
12367;SDS011;6248;49.812;6.620;2023-12-22T08:41:31;17.97;;;4.33;;
12367;SDS011;6248;49.812;6.620;2023-12-22T08:44:01;12.67;;;3.83;;
12367;SDS011;6248;49.812;6.620;2023-12-22T08:46:28;16.10;;;3.73;;
12367;SDS011;6248;49.812;6.620;2023-12-22T08:48:56;16.13;;;3.87;;
12367;SDS011;6248;49.812;6.620;2023-12-22T08:51:24;18.67;;;3.90;;
12367;SDS011;6248;49.812;6.620;2023-12-22T08:53:52;10.63;;;3.23;;
12367;SDS011;6248;49.812;6.620;2023-12-22T08:56:21;14.10;;;3.73;;
12367;SDS011;6248;49.812;6.620;2023-12-22T08:58:48;14.43;;;3.70;;
12367;SDS011;6248;49.812;6.620;2023-12-22T09:01:16;12.80;;;3.50;;
12367;SDS011;6248;49.812;6.620;2023-12-22T09:03:44;13.63;;;3.33;;
12367;SDS011;6248;49.812;6.620;2023-12-22T09:06:13;12.27;;;3.63;;
12367;SDS011;6248;49.812;6.620;2023-12-22T09:08:40;10.37;;;3.40;;
12367;SDS011;6248;49.812;6.620;2023-12-22T09:11:08;15.07;;;3.43;;
12367;SDS011;6248;49.812;6.620;2023-12-22T09:13:36;15.20;;;3.43;;
12367;SDS011;6248;49.812;6.620;2023-12-22T09:16:04;13.97;;;3.20;;
12367;SDS011;6248;49.812;6.620;2023-12-22T09:18:31;12.90;;;3.33;;
12367;SDS011;6248;49.812;6.620;2023-12-22T09:20:58;14.97;;;3.37;;
12367;SDS011;6248;49.812;6.620;2023-12-22T09:23:25;12.63;;;3.13;;
12367;SDS011;6248;49.812;6.620;2023-12-22T09:25:52;12.27;;;3.23;;
12367;SDS011;6248;49.812;6.620;2023-12-22T09:28:19;11.23;;;2.63;;
12367;SDS011;6248;49.812;6.620;2023-12-22T09:30:48;10.67;;;2.60;;
12367;SDS011;6248;49.812;6.620;2023-12-22T09:33:15;12.73;;;3.10;;
12367;SDS011;6248;49.812;6.620;2023-12-22T09:35:42;12.20;;;3.40;;
12367;SDS011;6248;49.812;6.620;2023-12-22T09:38:09;11.87;;;3.30;;
12367;SDS011;6248;49.812;6.620;2023-12-22T09:40:37;7.50;;;2.43;;
12367;SDS011;6248;49.812;6.620;2023-12-22T09:43:04;11.77;;;2.93;;
12367;SDS011;6248;49.812;6.620;2023-12-22T09:45:32;10.13;;;3.00;;
12367;SDS011;6248;49.812;6.620;2023-12-22T09:48:01;9.27;;;2.60;;
12367;SDS011;6248;49.812;6.620;2023-12-22T09:50:28;9.87;;;2.43;;
12367;SDS011;6248;49.812;6.620;2023-12-22T09:52:56;9.80;;;2.40;;
12367;SDS011;6248;49.812;6.620;2023-12-22T09:55:24;7.83;;;2.70;;
12367;SDS011;6248;49.812;6.620;2023-12-22T09:57:52;9.43;;;2.63;;
12367;SDS011;6248;49.812;6.620;2023-12-22T10:00:19;9.33;;;2.27;;
12367;SDS011;6248;49.812;6.620;2023-12-22T10:02:48;6.77;;;2.10;;
12367;SDS011;6248;49.812;6.620;2023-12-22T10:05:16;7.23;;;1.80;;
12367;SDS011;6248;49.812;6.620;2023-12-22T10:07:44;5.27;;;2.13;;
12367;SDS011;6248;49.812;6.620;2023-12-22T10:10:11;5.27;;;1.90;;
12367;SDS011;6248;49.812;6.620;2023-12-22T10:12:39;8.13;;;2.37;;
12367;SDS011;6248;49.812;6.620;2023-12-22T10:15:07;6.53;;;2.20;;
12367;SDS011;6248;49.812;6.620;2023-12-22T10:17:35;4.03;;;1.57;;
12367;SDS011;6248;49.812;6.620;2023-12-22T10:20:03;5.83;;;1.57;;
12367;SDS011;6248;49.812;6.620;2023-12-22T10:22:31;5.60;;;1.77;;
12367;SDS011;6248;49.812;6.620;2023-12-22T10:24:59;2.60;;;1.33;;
12367;SDS011;6248;49.812;6.620;2023-12-22T10:27:28;4.90;;;1.63;;
12367;SDS011;6248;49.812;6.620;2023-12-22T10:29:57;3.23;;;1.10;;
12367;SDS011;6248;49.812;6.620;2023-12-22T10:32:24;2.37;;;1.10;;
12367;SDS011;6248;49.812;6.620;2023-12-22T10:34:52;4.50;;;1.50;;
12367;SDS011;6248;49.812;6.620;2023-12-22T10:37:20;3.00;;;1.00;;
12367;SDS011;6248;49.812;6.620;2023-12-22T10:39:50;2.77;;;1.10;;
12367;SDS011;6248;49.812;6.620;2023-12-22T10:42:18;2.43;;;1.03;;
12367;SDS011;6248;49.812;6.620;2023-12-22T10:44:45;3.13;;;1.10;;
12367;SDS011;6248;49.812;6.620;2023-12-22T10:47:14;2.70;;;1.00;;
12367;SDS011;6248;49.812;6.620;2023-12-22T10:49:41;1.70;;;1.20;;
12367;SDS011;6248;49.812;6.620;2023-12-22T10:52:10;2.93;;;1.27;;
12367;SDS011;6248;49.812;6.620;2023-12-22T10:54:42;1.97;;;0.90;;
12367;SDS011;6248;49.812;6.620;2023-12-22T10:57:11;4.13;;;1.00;;
12367;SDS011;6248;49.812;6.620;2023-12-22T10:59:38;2.73;;;0.80;;
12367;SDS011;6248;49.812;6.620;2023-12-22T11:02:07;2.10;;;0.70;;
12367;SDS011;6248;49.812;6.620;2023-12-22T11:04:35;1.53;;;0.80;;
12367;SDS011;6248;49.812;6.620;2023-12-22T11:07:04;2.73;;;0.77;;
12367;SDS011;6248;49.812;6.620;2023-12-22T11:09:31;2.47;;;0.90;;
12367;SDS011;6248;49.812;6.620;2023-12-22T11:11:59;2.10;;;0.80;;
12367;SDS011;6248;49.812;6.620;2023-12-22T11:14:28;1.73;;;0.70;;
12367;SDS011;6248;49.812;6.620;2023-12-22T11:16:56;1.90;;;0.80;;
12367;SDS011;6248;49.812;6.620;2023-12-22T11:19:24;1.63;;;0.70;;
12367;SDS011;6248;49.812;6.620;2023-12-22T11:21:52;1.87;;;0.70;;
12367;SDS011;6248;49.812;6.620;2023-12-22T11:24:20;0.87;;;0.60;;
12367;SDS011;6248;49.812;6.620;2023-12-22T11:26:47;0.57;;;0.43;;
12367;SDS011;6248;49.812;6.620;2023-12-22T11:29:16;0.80;;;0.50;;
12367;SDS011;6248;49.812;6.620;2023-12-22T11:31:46;0.90;;;0.40;;
12367;SDS011;6248;49.812;6.620;2023-12-22T11:34:14;0.57;;;0.50;;
12367;SDS011;6248;49.812;6.620;2023-12-22T11:36:41;0.60;;;0.60;;
12367;SDS011;6248;49.812;6.620;2023-12-22T11:39:09;1.00;;;0.60;;
12367;SDS011;6248;49.812;6.620;2023-12-22T11:41:37;0.60;;;0.60;;
12367;SDS011;6248;49.812;6.620;2023-12-22T11:44:06;1.53;;;0.70;;
12367;SDS011;6248;49.812;6.620;2023-12-22T11:46:34;1.60;;;1.00;;
12367;SDS011;6248;49.812;6.620;2023-12-22T11:49:02;0.60;;;0.50;;
12367;SDS011;6248;49.812;6.620;2023-12-22T11:51:31;0.53;;;0.50;;
12367;SDS011;6248;49.812;6.620;2023-12-22T11:53:59;1.87;;;0.80;;
12367;SDS011;6248;49.812;6.620;2023-12-22T11:56:26;0.83;;;0.83;;
12367;SDS011;6248;49.812;6.620;2023-12-22T11:58:55;1.70;;;1.00;;
12367;SDS011;6248;49.812;6.620;2023-12-22T12:01:24;1.17;;;0.77;;
12367;SDS011;6248;49.812;6.620;2023-12-22T12:03:53;2.40;;;1.97;;
12367;SDS011;6248;49.812;6.620;2023-12-22T12:06:31;1.50;;;0.70;;
12367;SDS011;6248;49.812;6.620;2023-12-22T12:09:03;0.60;;;0.40;;
12367;SDS011;6248;49.812;6.620;2023-12-22T12:14:16;1.40;;;0.70;;
12367;SDS011;6248;49.812;6.620;2023-12-22T12:16:48;1.47;;;0.80;;
12367;SDS011;6248;49.812;6.620;2023-12-22T12:19:16;0.87;;;0.53;;
12367;SDS011;6248;49.812;6.620;2023-12-22T12:21:44;1.00;;;0.60;;
12367;SDS011;6248;49.812;6.620;2023-12-22T12:24:11;1.83;;;0.60;;
12367;SDS011;6248;49.812;6.620;2023-12-22T12:26:38;1.10;;;0.60;;
12367;SDS011;6248;49.812;6.620;2023-12-22T12:29:06;1.37;;;0.70;;
12367;SDS011;6248;49.812;6.620;2023-12-22T12:31:36;0.60;;;0.50;;
12367;SDS011;6248;49.812;6.620;2023-12-22T12:34:04;1.40;;;0.77;;
12367;SDS011;6248;49.812;6.620;2023-12-22T12:36:31;1.77;;;0.80;;
12367;SDS011;6248;49.812;6.620;2023-12-22T12:39:01;0.57;;;0.57;;
12367;SDS011;6248;49.812;6.620;2023-12-22T12:41:35;1.50;;;0.80;;
12367;SDS011;6248;49.812;6.620;2023-12-22T12:44:03;1.83;;;0.70;;
12367;SDS011;6248;49.812;6.620;2023-12-22T12:46:34;0.70;;;0.60;;
12367;SDS011;6248;49.812;6.620;2023-12-22T12:49:04;1.00;;;0.90;;
12367;SDS011;6248;49.812;6.620;2023-12-22T12:51:35;2.17;;;0.90;;
12367;SDS011;6248;49.812;6.620;2023-12-22T12:54:04;1.20;;;0.50;;
12367;SDS011;6248;49.812;6.620;2023-12-22T12:56:35;1.63;;;0.90;;
12367;SDS011;6248;49.812;6.620;2023-12-22T12:59:06;2.27;;;0.90;;
12367;SDS011;6248;49.812;6.620;2023-12-22T13:01:37;0.50;;;0.50;;
12367;SDS011;6248;49.812;6.620;2023-12-22T13:04:04;1.70;;;0.70;;
12367;SDS011;6248;49.812;6.620;2023-12-22T13:06:31;2.37;;;0.63;;
12367;SDS011;6248;49.812;6.620;2023-12-22T13:08:57;1.10;;;0.73;;
12367;SDS011;6248;49.812;6.620;2023-12-22T13:11:26;1.80;;;0.67;;
12367;SDS011;6248;49.812;6.620;2023-12-22T13:13:54;1.40;;;0.53;;
12367;SDS011;6248;49.812;6.620;2023-12-22T13:16:22;1.03;;;0.70;;
12367;SDS011;6248;49.812;6.620;2023-12-22T13:18:51;0.97;;;0.70;;
12367;SDS011;6248;49.812;6.620;2023-12-22T13:21:18;0.60;;;0.50;;
12367;SDS011;6248;49.812;6.620;2023-12-22T13:23:46;1.37;;;0.80;;
12367;SDS011;6248;49.812;6.620;2023-12-22T13:26:19;2.17;;;1.20;;
12367;SDS011;6248;49.812;6.620;2023-12-22T13:28:47;0.70;;;0.70;;
12367;SDS011;6248;49.812;6.620;2023-12-22T13:31:15;1.10;;;0.73;;
12367;SDS011;6248;49.812;6.620;2023-12-22T13:33:43;1.70;;;0.90;;
12367;SDS011;6248;49.812;6.620;2023-12-22T13:36:10;0.87;;;0.70;;
12367;SDS011;6248;49.812;6.620;2023-12-22T13:38:38;1.07;;;0.50;;
12367;SDS011;6248;49.812;6.620;2023-12-22T13:41:06;1.23;;;0.70;;
12367;SDS011;6248;49.812;6.620;2023-12-22T13:43:34;0.90;;;0.70;;
12367;SDS011;6248;49.812;6.620;2023-12-22T13:46:02;2.03;;;0.80;;
12367;SDS011;6248;49.812;6.620;2023-12-22T13:48:32;0.53;;;0.50;;
12367;SDS011;6248;49.812;6.620;2023-12-22T13:51:00;1.43;;;0.60;;
12367;SDS011;6248;49.812;6.620;2023-12-22T13:53:28;1.00;;;0.70;;
12367;SDS011;6248;49.812;6.620;2023-12-22T13:55:55;0.93;;;0.70;;
12367;SDS011;6248;49.812;6.620;2023-12-22T13:58:23;0.60;;;0.60;;
12367;SDS011;6248;49.812;6.620;2023-12-22T14:00:50;2.00;;;0.83;;
12367;SDS011;6248;49.812;6.620;2023-12-22T14:03:18;0.53;;;0.37;;
12367;SDS011;6248;49.812;6.620;2023-12-22T14:05:46;0.90;;;0.50;;
12367;SDS011;6248;49.812;6.620;2023-12-22T14:08:13;0.73;;;0.60;;
12367;SDS011;6248;49.812;6.620;2023-12-22T14:10:44;2.33;;;0.80;;
12367;SDS011;6248;49.812;6.620;2023-12-22T14:13:11;0.50;;;0.50;;
12367;SDS011;6248;49.812;6.620;2023-12-22T14:15:39;1.17;;;0.90;;
12367;SDS011;6248;49.812;6.620;2023-12-22T14:18:06;0.57;;;0.50;;
12367;SDS011;6248;49.812;6.620;2023-12-22T14:20:34;2.00;;;0.50;;
12367;SDS011;6248;49.812;6.620;2023-12-22T14:23:01;0.60;;;0.60;;
12367;SDS011;6248;49.812;6.620;2023-12-22T14:25:29;0.87;;;0.57;;
12367;SDS011;6248;49.812;6.620;2023-12-22T14:27:57;0.60;;;0.60;;
12367;SDS011;6248;49.812;6.620;2023-12-22T14:30:24;0.80;;;0.60;;
12367;SDS011;6248;49.812;6.620;2023-12-22T14:32:51;2.83;;;0.70;;
12367;SDS011;6248;49.812;6.620;2023-12-22T14:35:20;2.60;;;2.00;;
12367;SDS011;6248;49.812;6.620;2023-12-22T14:37:49;1.53;;;1.30;;
12367;SDS011;6248;49.812;6.620;2023-12-22T14:40:16;1.47;;;0.90;;
12367;SDS011;6248;49.812;6.620;2023-12-22T14:42:43;1.27;;;1.10;;
12367;SDS011;6248;49.812;6.620;2023-12-22T14:45:10;1.27;;;0.90;;
12367;SDS011;6248;49.812;6.620;2023-12-22T14:47:37;0.87;;;0.70;;
12367;SDS011;6248;49.812;6.620;2023-12-22T14:50:05;3.50;;;0.90;;
12367;SDS011;6248;49.812;6.620;2023-12-22T14:52:32;0.57;;;0.47;;
12367;SDS011;6248;49.812;6.620;2023-12-22T14:55:01;1.60;;;0.90;;
12367;SDS011;6248;49.812;6.620;2023-12-22T14:57:29;1.20;;;0.70;;
12367;SDS011;6248;49.812;6.620;2023-12-22T14:59:56;0.97;;;0.70;;
12367;SDS011;6248;49.812;6.620;2023-12-22T15:02:24;4.07;;;0.90;;
12367;SDS011;6248;49.812;6.620;2023-12-22T15:04:51;1.10;;;0.70;;